Latest Coastal Weather Observations for Point Perpendicular

IDN60701

Issued at 1:51 am EST Tuesday 26 May 2015 (issued every 10 minutes, with the page automatically refreshed every 10 minutes)

About coastal observations | Map of coastal stations | Coastal observations for NSW | Marine services | Other Formats
Station Details ID: 068151 Name: POINT PERPENDICULAR AWS Lat: -35.09 Lon: 150.80 Height: 85.0 m
Data from the previous 72 hours. | See also: Recent months at Point Perpendicular
Date/Time
EST
Temp

°C
Wind Pressure Rain
since 9am
mm
Weather Cloud Vis
km
Sea
Height
m
Swell
Dir
 
Speed
knots
Gust
knots
hPa Trend Height
m
Period
s
Dir
26/01:30am 13.9 WNW 5 7 1028.8 - 0.0 - - - - - - -
26/01:00am 13.7 W 6 8 1029.1 - 0.0 - - - - - - -
26/12:30am 13.6 W 6 8 1029.2 - 0.0 - - - - - - -
26/12:00am 13.5 W 6 8 1029.3 - 0.0 - - - - - - -
 
Date/Time
EST
Temp

°C
Wind Pressure Rain
since 9am
mm
Weather Cloud Vis
km
Sea
Height
m
Swell
Dir
 
Speed
knots
Gust
knots
hPa Trend Height
m
Period
s
Dir
25/11:30pm 13.9 WSW 7 9 1029.2 - 0.0 - - - - - - -
25/11:00pm 13.7 WSW 6 9 1029.3 - 0.0 - - - - - - -
25/10:30pm 13.7 WSW 6 8 1029.5 - 0.0 - - - - - - -
25/10:00pm 13.7 W 6 11 1029.5 - 0.0 - - - - - - -
25/09:30pm 13.9 W 6 9 1029.5 - 0.0 - - - - - - -
25/09:00pm 14.2 WSW 6 9 1029.3 - 0.0 - - - - - - -
25/08:30pm 14.3 SW 5 8 1029.1 - 0.0 - - - - - - -
25/08:00pm 14.3 SW 5 7 1029.2 - 0.0 - - - - - - -
25/07:30pm 14.4 SW 6 7 1029.2 - 0.0 - - - - - - -
25/07:00pm 14.2 WSW 4 5 1028.8 - 0.0 - - - - - - -
25/06:30pm 14.9 SW 4 5 1028.7 - 0.0 - - - - - - -
25/06:00pm 15.2 WSW 3 4 1028.5 - 0.0 - - - - - - -
25/05:30pm 15.3 SW 4 5 1028.3 - 0.0 - - - - - - -
25/05:00pm 15.6 SSW 3 4 1028.1 - 0.0 - - - - - - -
25/04:30pm 15.9 SSW 4 6 1028.0 - 0.0 - - - - - - -
25/04:00pm 16.7 WSW 5 8 1028.1 - 0.0 - - - - - - -
25/03:30pm 17.6 WNW 6 9 1028.1 - 0.0 - - - - - - -
25/03:00pm 17.0 NNW 6 8 1027.9 - 0.0 - - - - - - -
25/02:30pm 16.9 NNW 5 8 1028.0 - 0.0 - - - - - - -
25/02:00pm 16.7 NNW 8 11 1027.9 - 0.0 - - - - - - -
25/01:30pm 16.9 NNW 8 13 1028.0 - 0.0 - - - - - - -
25/01:00pm 17.9 NNW 8 13 1028.2 - 0.0 - - - - - - -
25/12:30pm 16.4 NNW 8 12 1028.5 - 0.0 - - - - - - -
25/12:00pm 17.6 NNW 8 13 1029.0 - 0.0 - - - - - - -
25/11:30am 16.2 NNW 7 11 1029.6 - 0.0 - - - - - - -
25/11:00am 15.1 NNW 8 13 1030.2 - 0.0 - - - - - - -
25/10:30am 14.7 NNW 8 13 1030.3 - 0.0 - - - - - - -
25/10:00am 13.4 NNW 8 13 1030.7 - 0.0 - - - - - - -
25/09:30am 13.3 NNW 7 11 1030.9 - 0.0 - - - - - - -
25/09:00am 12.7 NNW 6 9 1030.8 - 0.0 - - - - - - -
25/08:30am 11.6 NNW 5 7 1030.8 - 0.0 - - - - - - -
25/08:00am 11.4 NW 5 7 1031.0 - 0.0 - - - - - - -
25/07:30am 11.0 NW 4 7 1030.9 - 0.0 - - - - - - -
25/07:00am 10.9 NW 5 7 1030.8 - 0.0 - - - - - - -
25/06:30am 10.6 NW 6 7 1030.6 - 0.0 - - - - - - -
25/06:00am 11.2 NW 6 8 1030.6 - 0.0 - - - - - - -
25/05:30am 10.7 NW 7 8 1030.4 - 0.0 - - - - - - -
25/05:00am 10.8 NW 7 8 1030.2 - 0.0 - - - - - - -
25/04:30am 11.0 NW 7 9 1030.4 - 0.0 - - - - - - -
25/04:00am 11.0 NW 6 8 1030.3 - 0.0 - - - - - - -
25/03:30am 10.9 NW 7 8 1030.3 - 0.0 - - - - - - -
25/03:00am 11.0 NW 6 8 1030.7 - 0.0 - - - - - - -
25/02:30am 11.0 NW 6 7 1031.0 - 0.0 - - - - - - -
25/02:00am 10.5 NW 6 7 1031.2 - 0.0 - - - - - - -
25/01:30am 10.8 NW 6 7 1031.2 - 0.0 - - - - - - -
25/01:00am 10.6 NW 5 7 1031.2 - 0.0 - - - - - - -
25/12:30am 10.9 NW 6 7 1031.4 - 0.0 - - - - - - -
25/12:00am 10.9 NW 5 6 1031.8 - 0.0 - - - - - - -
 
Date/Time
EST
Temp

°C
Wind Pressure Rain
since 9am
mm
Weather Cloud Vis
km
Sea
Height
m
Swell
Dir
 
Speed
knots
Gust
knots
hPa Trend Height
m
Period
s
Dir
24/11:30pm 11.2 NW 5 6 1031.9 - 0.0 - - - - - - -
24/11:00pm 11.6 NW 5 6 1031.9 - 0.0 - - - - - - -
24/10:30pm 11.9 WNW 4 5 1032.0 - 0.0 - - - - - - -
24/10:00pm 12.9 NW 5 6 1032.2 - 0.0 - - - - - - -
24/09:30pm 12.9 WNW 4 6 1032.0 - 0.0 - - - - - - -
24/09:00pm 12.3 NNE 4 5 1031.9 - 0.0 - - - - - - -
24/08:30pm 12.5 CALM 0 0 1032.0 - 0.0 - - - - - - -
24/08:00pm 12.6 CALM 0 0 1031.7 - 0.0 - - - - - - -
24/07:30pm 13.1 CALM 0 0 1031.7 - 0.0 - - - - - - -
24/07:00pm 13.2 CALM 0 0 1031.9 - 0.0 - - - - - - -
24/06:30pm 13.1 CALM 0 0 1031.8 - 0.0 - - - - - - -
24/06:00pm 13.3 CALM 0 0 1031.5 - 0.0 - - - - - - -
24/05:30pm 12.9 CALM 0 0 1031.3 - 0.0 - - - - - - -
24/05:00pm 13.8 E 2 3 1031.1 - 0.0 - - - - - - -
24/04:30pm 15.0 ESE 2 3 1030.9 - 0.0 - - - - - - -
24/04:00pm 16.0 E 3 5 1030.6 - 0.0 - - - - - - -
24/03:30pm 16.4 SE 3 6 1030.5 - 0.0 - - - - - - -
24/03:00pm 16.4 W 2 4 1030.8 - 0.0 - - - - - - -
24/02:30pm 16.1 WNW 3 6 1031.0 - 0.0 - - - - - - -
24/02:00pm 16.1 SW 2 5 1030.9 - 0.0 - - - - - - -
24/01:30pm 15.7 SW 5 8 1030.9 - 0.0 - - - - - - -
24/01:00pm 15.4 SW 4 8 1031.1 - 0.0 - - - - - - -
24/12:30pm 15.3 WSW 5 8 1031.3 - 0.0 - - - - - - -
24/12:00pm 15.1 WSW 5 8 1031.4 - 0.0 - - - - - - -
24/11:30am 14.6 WSW 5 8 1031.9 - 0.0 - - - - - - -
24/11:00am 14.3 W 6 8 1032.0 - 0.0 - - - - - - -
24/10:30am 14.1 WSW 6 11 1032.5 - 0.0 - - - - - - -
24/10:00am 13.7 W 6 9 1032.6 - 0.0 - - - - - - -
24/09:30am 13.0 W 7 11 1032.6 - 0.0 - - - - - - -
24/09:00am 12.6 W 5 7 1032.5 - 0.0 - - - - - - -
24/08:30am 12.1 W 4 5 1032.3 - 0.0 - - - - - - -
24/08:00am 11.3 WNW 5 7 1031.9 - 0.0 - - - - - - -
24/07:30am 11.1 WNW 5 6 1031.4 - 0.0 - - - - - - -
24/07:00am 10.8 W 4 5 1031.2 - 0.0 - - - - - - -
24/06:30am 10.6 WNW 5 6 1030.9 - 0.0 - - - - - - -
24/06:00am 10.9 WNW 6 7 1030.6 - 0.0 - - - - - - -
24/05:30am 10.7 W 5 7 1030.3 - 0.0 - - - - - - -
24/05:00am 11.9 W 6 7 1030.0 - 0.0 - - - - - - -
24/04:30am 11.7 WNW 5 6 1029.9 - 0.0 - - - - - - -
24/04:00am 12.1 W 6 7 1029.7 - 0.0 - - - - - - -
24/03:30am 11.5 WNW 6 7 1029.6 - 0.0 - - - - - - -
24/03:00am 12.0 WNW 6 7 1029.7 - 0.0 - - - - - - -
24/02:30am 11.0 NW 5 7 1029.7 - 0.0 - - - - - - -
24/02:00am 11.9 WNW 6 7 1029.7 - 0.0 - - - - - - -
24/01:30am 11.2 WNW 6 7 1029.7 - 0.0 - - - - - - -
24/01:00am 12.0 WNW 6 7 1029.6 - 0.0 - - - - - - -
24/12:30am 11.5 WNW 7 8 1029.7 - 0.0 - - - - - - -
24/12:00am 12.0 WNW 4 5 1029.8 - 0.0 - - - - - - -
 
Date/Time
EST
Temp

°C
Wind Pressure Rain
since 9am
mm
Weather Cloud Vis
km
Sea
Height
m
Swell
Dir
 
Speed
knots
Gust
knots
hPa Trend Height
m
Period
s
Dir
23/11:30pm 12.3 W 3 5 1029.8 - 0.0 - - - - - - -
23/11:00pm 12.5 W 5 7 1029.7 - 0.0 - - - - - - -
23/10:30pm 13.0 W 5 6 1029.8 - 0.0 - - - - - - -
23/10:00pm 12.8 WSW 6 8 1029.8 - 0.0 - - - - - - -
23/09:30pm 12.7 WNW 6 7 1029.8 - 0.0 - - - - - - -
23/09:00pm 12.8 WNW 4 5 1029.9 - 0.0 - - - - - - -
23/08:30pm 13.5 WSW 3 5 1029.8 - 0.0 - - - - - - -
23/08:00pm 13.6 SW 3 6 1029.7 - 0.0 - - - - - - -
23/07:30pm 14.8 SSW 6 8 1029.7 - 0.0 - - - - - - -
23/07:00pm 14.8 SSW 5 8 1029.6 - 0.0 - - - - - - -
23/06:30pm 14.8 SW 5 6 1029.5 - 0.0 - - - - - - -
23/06:00pm 14.7 SSW 6 8 1029.4 - 0.0 - - - - - - -
23/05:30pm 14.7 SSW 6 9 1029.0 - 0.0 - - - - - - -
23/05:00pm 14.4 SSW 7 12 1028.9 - 0.0 - - - - - - -
23/04:30pm 14.6 SSW 8 12 1028.7 - 0.0 - - - - - - -
23/04:00pm 14.8 SSW 7 13 1028.7 - 0.0 - - - - - - -
23/03:30pm 14.7 SSW 10 14 1028.7 - 0.0 - - - - - - -
23/03:00pm 14.8 SSW 10 16 1028.3 - 0.0 - - - - - - -
23/02:30pm 14.7 SW 12 17 1028.1 - 0.0 - - - - - - -
23/02:00pm 14.9 SW 12 17 1028.3 - 0.0 - - - - - - -
23/01:30pm 14.5 SSW 10 16 1028.4 - 0.0 - - - - - - -
23/01:00pm 14.6 SSW 12 16 1028.5 - 0.0 - - - - - - -
23/12:30pm 14.6 SSW 12 18 1028.5 - 0.0 - - - - - - -
23/12:00pm 14.7 SSW 13 18 1028.8 - 0.0 - - - - - - -
23/11:30am 14.5 SSW 13 18 1029.1 - 0.0 - - - - - - -
23/11:00am 14.3 SSW 11 18 1029.4 - 0.0 - - - - - - -
23/10:30am 14.2 SW 12 16 1029.8 - 0.0 - - - - - - -
23/10:00am 14.1 SW 11 17 1029.7 - 0.0 - - - - - - -
23/09:30am 14.0 SW 11 16 1029.4 - 0.0 - - - - - - -
23/09:00am 14.1 SW 12 17 1029.1 - 4.2 - - - - - - -
23/08:30am 13.9 SW 10 15 1028.9 - 4.2 - - - - - - -
23/08:00am 13.6 SW 7 12 1028.8 - 4.2 - - - - - - -
23/07:30am 13.4 SW 8 15 1028.6 - 4.2 - - - - - - -
23/07:00am 13.6 SW 9 14 1028.2 - 4.2 - - - - - - -
23/06:30am 13.8 SSW 13 18 1027.6 - 4.2 - - - - - - -
23/06:00am 13.2 SW 11 16 1027.4 - 4.2 - - - - - - -
23/05:30am 13.1 SSW 10 15 1027.0 - 4.2 - - - - - - -
23/05:00am 12.5 SW 10 16 1027.2 - 4.2 - - - - - - -
23/04:30am 12.3 SW 11 18 1027.4 - 4.2 - - - - - - -
23/04:00am 12.3 SW 11 16 1027.2 - 4.2 - - - - - - -
23/03:30am 12.9 SW 11 17 1027.1 - 4.2 - - - - - - -
23/03:00am 12.9 SW 13 18 1027.1 - 4.2 - - - - - - -
23/02:30am 13.0 SW 14 22 1027.0 - 4.2 - - - - - - -
23/02:00am 13.4 SSW 14 22 1026.8 - 4.2 - - - - - - -

Other Formats:

Comma delimited format used in spreadsheet applications
http://www.bom.gov.au/fwo/IDN60701/IDN60701.95940.axf

JavaScript Object Notation format (JSON) in row-major order
http://www.bom.gov.au/fwo/IDN60701/IDN60701.95940.json